Centenario Blu — 3FXD7 — position and weather

sailwx.info

Track history (hours):
 
Tides and Currents Weather Stations Pressure Air Temp Water Temp Dewpoint Dewpoint Depression Visibility Wind Speed Wind Dir Waves Ship Positions

Centenario Blu

Last reported at 2015-Mar-02 11:33 UTC. Time now 2015-Mar-03 03:11 UTC.
Position S 38°46' E 141°43'.

Length 190 m; draft 11.2 m.

Type: Cargo ship. MMSI: 356832000.

Date/timePositionNaut miles runAvg speedWind from/ knotsBaromVisibWave heightAir tempDewpointWater temp
2015-Mar-02 11:33S 38°46' E 141°43'1212.4
2015-Mar-02 10:33S 38°48' E 141°59'1212.4
2015-Mar-02 09:33S 38°50' E 142°15'1212.3
2015-Mar-02 08:33S 38°51' E 142°30'1312.3
2015-Mar-02 07:31S 38°53' E 142°46'1111.6
2015-Mar-02 06:33S 38°55' E 143°01'1211.1
2015-Mar-02 05:26S 38°57' E 143°16'1111.2
2015-Mar-02 04:29S 38°58' E 143°30'10111.3
2015-Mar-01 19:33S 39°08' E 145°39'1110.8
2015-Mar-01 18:33S 39°10' E 145°53'1111.1
2015-Mar-01 17:33S 39°11' E 146°07'1111.2
2015-Mar-01 16:33S 39°11' E 146°22'1111.1
2015-Mar-01 15:33S 39°09' E 146°36'10810.8
2015-Mar-01 05:33S 38°28' E 148°43'1010.0
2015-Mar-01 04:33S 38°20' E 148°51'10 9.7
2015-Mar-01 03:33S 38°11' E 148°57'10 9.7
2015-Mar-01 02:33S 38°05' E 149°06'1110.1
2015-Mar-01 01:30S 38°01' E 149°18'1210.0
2015-Mar-01 00:16S 37°56' E 149°33'710.0
2015-Feb-28 23:33S 37°52' E 149°41'1111.5
2015-Feb-28 22:33S 37°45' E 149°52'1212.1
2015-Feb-28 21:33S 37°38' E 150°05'1212.3
2015-Feb-28 20:33S 37°27' E 150°12'1312.4
2015-Feb-28 19:33S 37°16' E 150°19'1111.5
2015-Feb-28 18:33S 37°05' E 150°24'9012.2
2015-Feb-28 11:11S 35°43' E 151°10'914.1
2015-Feb-28 10:33S 35°35' E 151°14'1414.0
2015-Feb-28 09:33S 35°22' E 151°20'2113.9
2015-Feb-28 08:04S 35°03' E 151°30'714.1
2015-Feb-28 07:33S 34°56' E 151°33'11912.9
2015-Feb-27 22:20S 33°10' E 152°37'1112.2
2015-Feb-27 21:28S 33°00' E 152°42'1112.1
2015-Feb-27 20:33S 32°50' E 152°48'1211.6
2015-Feb-27 19:33S 32°40' E 152°54'34012.4
2015-Feb-26 16:03S 27°13' E 154°40'611.5
2015-Feb-26 15:32S 27°07' E 154°40'1111.3
2015-Feb-26 14:33S 26°55' E 154°40'1111.1
2015-Feb-26 13:33S 26°44' E 154°40'1111.5
2015-Feb-26 12:33S 26°33' E 154°40'1211.4
2015-Feb-26 11:28S 26°20' E 154°40'  
Track history (hours):
 
Tides and Currents Weather Stations Pressure Air Temp Water Temp Dewpoint Dewpoint Depression Visibility Wind Speed Wind Dir Waves Ship Positions

Centenario Blu

Last reported at 2015-Mar-02 11:33 UTC. Time now 2015-Mar-03 03:11 UTC.
Position S 38°46' E 141°43'.

Length 190 m; draft 11.2 m.

Type: Cargo ship. MMSI: 356832000.

Date/timePositionNaut miles runAvg speedWind from/ knotsBaromVisibWave heightAir tempDewpointWater temp
2015-Mar-02 11:33S 38°46' E 141°43'1212.4
2015-Mar-02 10:33S 38°48' E 141°59'1212.4
2015-Mar-02 09:33S 38°50' E 142°15'1212.3
2015-Mar-02 08:33S 38°51' E 142°30'1312.3
2015-Mar-02 07:31S 38°53' E 142°46'1111.6
2015-Mar-02 06:33S 38°55' E 143°01'1211.1
2015-Mar-02 05:26S 38°57' E 143°16'1111.2
2015-Mar-02 04:29S 38°58' E 143°30'10111.3
2015-Mar-01 19:33S 39°08' E 145°39'1110.8
2015-Mar-01 18:33S 39°10' E 145°53'1111.1
2015-Mar-01 17:33S 39°11' E 146°07'1111.2
2015-Mar-01 16:33S 39°11' E 146°22'1111.1
2015-Mar-01 15:33S 39°09' E 146°36'10810.8
2015-Mar-01 05:33S 38°28' E 148°43'1010.0
2015-Mar-01 04:33S 38°20' E 148°51'10 9.7
2015-Mar-01 03:33S 38°11' E 148°57'10 9.7
2015-Mar-01 02:33S 38°05' E 149°06'1110.1
2015-Mar-01 01:30S 38°01' E 149°18'1210.0
2015-Mar-01 00:16S 37°56' E 149°33'710.0
2015-Feb-28 23:33S 37°52' E 149°41'1111.5
2015-Feb-28 22:33S 37°45' E 149°52'1212.1
2015-Feb-28 21:33S 37°38' E 150°05'1212.3
2015-Feb-28 20:33S 37°27' E 150°12'1312.4
2015-Feb-28 19:33S 37°16' E 150°19'1111.5
2015-Feb-28 18:33S 37°05' E 150°24'9012.2
2015-Feb-28 11:11S 35°43' E 151°10'914.1
2015-Feb-28 10:33S 35°35' E 151°14'1414.0
2015-Feb-28 09:33S 35°22' E 151°20'2113.9
2015-Feb-28 08:04S 35°03' E 151°30'714.1
2015-Feb-28 07:33S 34°56' E 151°33'11912.9
2015-Feb-27 22:20S 33°10' E 152°37'1112.2
2015-Feb-27 21:28S 33°00' E 152°42'1112.1
2015-Feb-27 20:33S 32°50' E 152°48'1211.6
2015-Feb-27 19:33S 32°40' E 152°54'34012.4
2015-Feb-26 16:03S 27°13' E 154°40'611.5
2015-Feb-26 15:32S 27°07' E 154°40'1111.3
2015-Feb-26 14:33S 26°55' E 154°40'1111.1
2015-Feb-26 13:33S 26°44' E 154°40'1111.5
2015-Feb-26 12:33S 26°33' E 154°40'1211.4
2015-Feb-26 11:28S 26°20' E 154°40'  

Dump ship's entire track history